Austin Bergstrom International Airport
KAUS : now visible

Airfield :











YOU CAN JOIN US ON...

 
LOGIN :

Register | Disclaimer

   EN    FR    IT 

 









Legend :    VFR   Marginal VFR   IFR   Intensive IFR   Very Intensive IFR
Visi :
Ceiling :
>= 8 km
>= 3000ft
5 to 8 km
1000 to 3000 ft
1500m to 5 km
500 to 1000 ft
800 to 1500m
200 to 500 ft
< 800m
< 200 ft
Symbols :   Thunderstorms  Fog  Heavy snow  Heavy precipitations  Wind > 20 kt






- Airport Elevation : 542 ft
- IATA code : AUS


KAUS - Austin Bergstrom International

CURRENT METAR :
  • 281053Z 00000KT 10SM CLR 03/03 A2999 RMK AO2 SLP156 T00330033

EXPIRED METARs :
  • 280953Z 00000KT 8SM CLR 04/04 A3000 RMK AO2 SLP157 T00440044
  • 280853Z 29004KT 8SM CLR 06/06 A3000 RMK AO2 SLP158 T00560056 55003

TAF KAUS
Valid from the 28 at 06:00 until the 29 at 12:00 UTC


280520Z 2806/2912 35003KT P6SM SKC
FM281800 17008KT P6SM SKC
FM290500 17005KT P6SM BKN007
FM290900 17005KT 3SM BR BKN007
KZHU FIR / North America



MET'MAP, your aeronautical weather chart ! - Copyright ORBIFLY December 2007 - Disclaimer

ORBIFLY MET'MAP TEAM :

Programming & Development : Alexandra Zaïnal
Original concept : Baudouin d'Aumeries
Technical & hardware support : Manuel Goepfert
Assistance : Marc-Olivier Méhu




SOURCES & CREDITS :

   NOAA       Earth
Advisory